sensor_id;sensor_type;location;lat;lon;timestamp;temperature;humidity
78904;DHT22;68291;49.602;8.722;2023-06-14T00:01:20;19.00;56.30
78904;DHT22;68291;49.602;8.722;2023-06-14T00:03:51;19.10;56.10
78904;DHT22;68291;49.602;8.722;2023-06-14T00:06:34;19.20;56.10
78904;DHT22;68291;49.602;8.722;2023-06-14T00:09:11;19.20;56.10
78904;DHT22;68291;49.602;8.722;2023-06-14T00:11:45;19.30;56.30
78904;DHT22;68291;49.602;8.722;2023-06-14T00:14:36;19.30;56.20
78904;DHT22;68291;49.602;8.722;2023-06-14T00:17:18;19.40;56.40
78904;DHT22;68291;49.602;8.722;2023-06-14T00:20:01;19.40;56.70
78904;DHT22;68291;49.602;8.722;2023-06-14T00:22:40;19.30;56.70
78904;DHT22;68291;49.602;8.722;2023-06-14T00:25:29;19.30;56.40
78904;DHT22;68291;49.602;8.722;2023-06-14T00:28:18;19.30;57.10
78904;DHT22;68291;49.602;8.722;2023-06-14T00:31:14;19.20;57.10
78904;DHT22;68291;49.602;8.722;2023-06-14T00:34:10;19.20;57.40
78904;DHT22;68291;49.602;8.722;2023-06-14T00:37:01;19.10;56.70
78904;DHT22;68291;49.602;8.722;2023-06-14T00:39:33;19.10;56.30
78904;DHT22;68291;49.602;8.722;2023-06-14T00:42:09;19.10;57.00
78904;DHT22;68291;49.602;8.722;2023-06-14T00:45:06;19.10;56.80
78904;DHT22;68291;49.602;8.722;2023-06-14T00:47:52;19.10;56.80
78904;DHT22;68291;49.602;8.722;2023-06-14T00:50:32;19.10;57.50
78904;DHT22;68291;49.602;8.722;2023-06-14T00:53:11;19.10;57.20
78904;DHT22;68291;49.602;8.722;2023-06-14T00:55:55;19.10;57.30
78904;DHT22;68291;49.602;8.722;2023-06-14T00:58:51;19.10;57.40
78904;DHT22;68291;49.602;8.722;2023-06-14T01:01:34;19.10;57.60
78904;DHT22;68291;49.602;8.722;2023-06-14T01:04:52;19.00;57.70
78904;DHT22;68291;49.602;8.722;2023-06-14T01:07:51;19.00;58.90
78904;DHT22;68291;49.602;8.722;2023-06-14T01:10:59;18.90;58.40
78904;DHT22;68291;49.602;8.722;2023-06-14T01:13:35;18.90;58.40
78904;DHT22;68291;49.602;8.722;2023-06-14T01:16:33;18.80;58.60
78904;DHT22;68291;49.602;8.722;2023-06-14T01:19:28;18.70;57.90
78904;DHT22;68291;49.602;8.722;2023-06-14T01:22:22;18.70;58.40
78904;DHT22;68291;49.602;8.722;2023-06-14T01:25:00;18.60;59.30
78904;DHT22;68291;49.602;8.722;2023-06-14T01:28:06;18.50;59.10
78904;DHT22;68291;49.602;8.722;2023-06-14T01:30:47;18.40;59.30
78904;DHT22;68291;49.602;8.722;2023-06-14T01:33:40;18.30;59.40
78904;DHT22;68291;49.602;8.722;2023-06-14T01:36:35;18.30;59.20
78904;DHT22;68291;49.602;8.722;2023-06-14T01:39:18;18.20;59.50
78904;DHT22;68291;49.602;8.722;2023-06-14T01:42:18;18.10;59.90
78904;DHT22;68291;49.602;8.722;2023-06-14T01:45:16;18.10;60.90
78904;DHT22;68291;49.602;8.722;2023-06-14T01:48:09;18.00;60.00
78904;DHT22;68291;49.602;8.722;2023-06-14T01:50:49;17.90;60.90
78904;DHT22;68291;49.602;8.722;2023-06-14T01:53:20;17.80;60.00
78904;DHT22;68291;49.602;8.722;2023-06-14T01:55:55;17.80;60.00
78904;DHT22;68291;49.602;8.722;2023-06-14T02:02:18;17.70;61.70
78904;DHT22;68291;49.602;8.722;2023-06-14T02:04:56;17.60;60.50
78904;DHT22;68291;49.602;8.722;2023-06-14T02:07:47;17.60;61.10
78904;DHT22;68291;49.602;8.722;2023-06-14T02:10:37;17.60;61.70
78904;DHT22;68291;49.602;8.722;2023-06-14T02:13:27;17.60;61.30
78904;DHT22;68291;49.602;8.722;2023-06-14T02:16:18;17.50;61.20
78904;DHT22;68291;49.602;8.722;2023-06-14T02:18:56;17.50;62.80
78904;DHT22;68291;49.602;8.722;2023-06-14T02:21:42;17.50;61.10
78904;DHT22;68291;49.602;8.722;2023-06-14T02:24:19;17.50;61.50
78904;DHT22;68291;49.602;8.722;2023-06-14T02:27:10;17.50;61.90
78904;DHT22;68291;49.602;8.722;2023-06-14T02:29:50;17.50;61.70
78904;DHT22;68291;49.602;8.722;2023-06-14T02:32:41;17.50;61.80
78904;DHT22;68291;49.602;8.722;2023-06-14T02:35:19;17.50;62.10
78904;DHT22;68291;49.602;8.722;2023-06-14T02:38:03;17.50;61.80
78904;DHT22;68291;49.602;8.722;2023-06-14T02:40:59;17.50;62.20
78904;DHT22;68291;49.602;8.722;2023-06-14T02:43:55;17.50;62.10
78904;DHT22;68291;49.602;8.722;2023-06-14T02:46:29;17.40;62.50
78904;DHT22;68291;49.602;8.722;2023-06-14T02:49:18;17.40;63.00
78904;DHT22;68291;49.602;8.722;2023-06-14T02:52:06;17.40;63.60
78904;DHT22;68291;49.602;8.722;2023-06-14T02:54:41;17.40;62.90
78904;DHT22;68291;49.602;8.722;2023-06-14T02:57:23;17.30;62.30
78904;DHT22;68291;49.602;8.722;2023-06-14T03:00:09;17.30;62.80
78904;DHT22;68291;49.602;8.722;2023-06-14T03:02:50;17.30;63.20
78904;DHT22;68291;49.602;8.722;2023-06-14T03:05:46;17.30;62.10
78904;DHT22;68291;49.602;8.722;2023-06-14T03:08:23;17.30;63.50
78904;DHT22;68291;49.602;8.722;2023-06-14T03:11:19;17.30;63.40
78904;DHT22;68291;49.602;8.722;2023-06-14T03:14:14;17.30;63.20
78904;DHT22;68291;49.602;8.722;2023-06-14T03:16:47;17.20;62.80
78904;DHT22;68291;49.602;8.722;2023-06-14T03:19:28;17.20;63.50
78904;DHT22;68291;49.602;8.722;2023-06-14T03:22:26;17.20;63.40
78904;DHT22;68291;49.602;8.722;2023-06-14T03:24:57;17.10;63.70
78904;DHT22;68291;49.602;8.722;2023-06-14T03:27:36;17.10;63.40
78904;DHT22;68291;49.602;8.722;2023-06-14T03:30:15;17.10;63.20
78904;DHT22;68291;49.602;8.722;2023-06-14T03:32:49;17.20;63.80
78904;DHT22;68291;49.602;8.722;2023-06-14T03:35:24;17.10;64.00
78904;DHT22;68291;49.602;8.722;2023-06-14T03:41:21;17.20;64.40
78904;DHT22;68291;49.602;8.722;2023-06-14T03:43:52;17.30;63.40
78904;DHT22;68291;49.602;8.722;2023-06-14T03:46:32;17.30;63.80
78904;DHT22;68291;49.602;8.722;2023-06-14T03:49:14;17.40;63.70
78904;DHT22;68291;49.602;8.722;2023-06-14T03:52:05;17.50;63.50
78904;DHT22;68291;49.602;8.722;2023-06-14T03:55:03;17.60;63.20
78904;DHT22;68291;49.602;8.722;2023-06-14T03:57:57;17.70;63.50
78904;DHT22;68291;49.602;8.722;2023-06-14T04:00:52;17.80;63.20
78904;DHT22;68291;49.602;8.722;2023-06-14T04:03:31;17.90;62.90
78904;DHT22;68291;49.602;8.722;2023-06-14T04:06:12;17.90;62.80
78904;DHT22;68291;49.602;8.722;2023-06-14T04:08:56;18.00;63.00
78904;DHT22;68291;49.602;8.722;2023-06-14T04:12:08;18.00;63.00
78904;DHT22;68291;49.602;8.722;2023-06-14T04:14:41;18.10;63.50
78904;DHT22;68291;49.602;8.722;2023-06-14T04:17:28;18.10;63.00
78904;DHT22;68291;49.602;8.722;2023-06-14T04:20:16;18.10;63.10
78904;DHT22;68291;49.602;8.722;2023-06-14T04:23:10;18.20;63.10
78904;DHT22;68291;49.602;8.722;2023-06-14T04:25:41;18.20;63.10
78904;DHT22;68291;49.602;8.722;2023-06-14T04:28:24;18.20;62.90
78904;DHT22;68291;49.602;8.722;2023-06-14T04:31:02;18.30;63.60
78904;DHT22;68291;49.602;8.722;2023-06-14T04:33:38;18.30;63.30
78904;DHT22;68291;49.602;8.722;2023-06-14T04:36:21;18.30;63.10
78904;DHT22;68291;49.602;8.722;2023-06-14T04:39:11;18.40;63.10
78904;DHT22;68291;49.602;8.722;2023-06-14T04:41:56;18.40;63.10
78904;DHT22;68291;49.602;8.722;2023-06-14T04:44:46;18.50;63.10
78904;DHT22;68291;49.602;8.722;2023-06-14T04:47:43;18.50;63.30
78904;DHT22;68291;49.602;8.722;2023-06-14T04:50:35;18.60;62.70
78904;DHT22;68291;49.602;8.722;2023-06-14T04:53:10;18.70;63.00
78904;DHT22;68291;49.602;8.722;2023-06-14T04:55:42;18.70;63.10
78904;DHT22;68291;49.602;8.722;2023-06-14T04:58:27;18.70;63.00
78904;DHT22;68291;49.602;8.722;2023-06-14T05:01:09;18.80;63.10
78904;DHT22;68291;49.602;8.722;2023-06-14T05:03:51;18.80;63.20
78904;DHT22;68291;49.602;8.722;2023-06-14T05:06:38;18.80;62.90
78904;DHT22;68291;49.602;8.722;2023-06-14T05:09:22;18.90;63.10
78904;DHT22;68291;49.602;8.722;2023-06-14T05:11:54;18.90;63.20
78904;DHT22;68291;49.602;8.722;2023-06-14T05:14:44;19.00;63.10
78904;DHT22;68291;49.602;8.722;2023-06-14T05:17:22;19.00;63.30
78904;DHT22;68291;49.602;8.722;2023-06-14T05:20:02;19.10;63.10
78904;DHT22;68291;49.602;8.722;2023-06-14T05:22:43;19.10;63.10
78904;DHT22;68291;49.602;8.722;2023-06-14T05:25:21;19.20;63.50
78904;DHT22;68291;49.602;8.722;2023-06-14T05:28:04;19.20;63.50
78904;DHT22;68291;49.602;8.722;2023-06-14T05:30:44;19.20;63.30
78904;DHT22;68291;49.602;8.722;2023-06-14T05:33:25;19.30;63.40
78904;DHT22;68291;49.602;8.722;2023-06-14T05:35:59;19.30;63.50
78904;DHT22;68291;49.602;8.722;2023-06-14T05:38:58;19.40;63.50
78904;DHT22;68291;49.602;8.722;2023-06-14T05:41:49;19.40;63.20
78904;DHT22;68291;49.602;8.722;2023-06-14T05:44:40;19.40;62.90
78904;DHT22;68291;49.602;8.722;2023-06-14T05:47:11;19.50;63.10
78904;DHT22;68291;49.602;8.722;2023-06-14T05:49:55;19.50;63.00
78904;DHT22;68291;49.602;8.722;2023-06-14T05:52:47;19.60;63.70
78904;DHT22;68291;49.602;8.722;2023-06-14T05:55:43;19.70;63.60
78904;DHT22;68291;49.602;8.722;2023-06-14T05:58:38;19.70;63.40
78904;DHT22;68291;49.602;8.722;2023-06-14T06:01:14;19.70;63.20
78904;DHT22;68291;49.602;8.722;2023-06-14T06:04:09;19.80;63.30
78904;DHT22;68291;49.602;8.722;2023-06-14T06:07:11;19.90;63.20
78904;DHT22;68291;49.602;8.722;2023-06-14T06:09:55;19.90;63.10
78904;DHT22;68291;49.602;8.722;2023-06-14T06:12:26;20.00;63.20
78904;DHT22;68291;49.602;8.722;2023-06-14T06:15:07;20.00;63.20
78904;DHT22;68291;49.602;8.722;2023-06-14T06:17:46;20.10;63.30
78904;DHT22;68291;49.602;8.722;2023-06-14T06:20:27;20.20;63.20
78904;DHT22;68291;49.602;8.722;2023-06-14T06:23:08;20.20;62.90
78904;DHT22;68291;49.602;8.722;2023-06-14T06:25:47;20.30;63.00
78904;DHT22;68291;49.602;8.722;2023-06-14T06:28:28;20.30;62.90
78904;DHT22;68291;49.602;8.722;2023-06-14T06:31:07;20.40;62.80
78904;DHT22;68291;49.602;8.722;2023-06-14T06:33:52;20.50;62.80
78904;DHT22;68291;49.602;8.722;2023-06-14T06:36:44;20.50;62.80
78904;DHT22;68291;49.602;8.722;2023-06-14T06:39:31;20.60;62.90
78904;DHT22;68291;49.602;8.722;2023-06-14T06:42:07;20.70;63.00
78904;DHT22;68291;49.602;8.722;2023-06-14T06:44:47;20.70;62.50
78904;DHT22;68291;49.602;8.722;2023-06-14T06:47:20;20.80;62.30
78904;DHT22;68291;49.602;8.722;2023-06-14T06:50:07;20.90;63.20
78904;DHT22;68291;49.602;8.722;2023-06-14T06:52:48;20.90;62.80
78904;DHT22;68291;49.602;8.722;2023-06-14T06:55:21;21.00;61.60
78904;DHT22;68291;49.602;8.722;2023-06-14T06:58:15;21.10;61.60
78904;DHT22;68291;49.602;8.722;2023-06-14T07:00:51;21.10;61.50
78904;DHT22;68291;49.602;8.722;2023-06-14T07:03:39;21.20;61.70
78904;DHT22;68291;49.602;8.722;2023-06-14T07:06:19;21.30;61.70
78904;DHT22;68291;49.602;8.722;2023-06-14T07:09:04;21.40;61.20
78904;DHT22;68291;49.602;8.722;2023-06-14T07:15:11;21.50;60.90
78904;DHT22;68291;49.602;8.722;2023-06-14T07:17:51;21.60;61.00
78904;DHT22;68291;49.602;8.722;2023-06-14T07:20:31;21.60;61.20
78904;DHT22;68291;49.602;8.722;2023-06-14T07:23:36;21.70;61.20
78904;DHT22;68291;49.602;8.722;2023-06-14T07:26:08;21.80;60.60
78904;DHT22;68291;49.602;8.722;2023-06-14T07:29:01;21.90;60.60
78904;DHT22;68291;49.602;8.722;2023-06-14T07:31:43;21.90;60.50
78904;DHT22;68291;49.602;8.722;2023-06-14T07:34:34;22.00;60.00
78904;DHT22;68291;49.602;8.722;2023-06-14T07:37:28;22.10;59.80
78904;DHT22;68291;49.602;8.722;2023-06-14T07:40:12;22.10;59.70
78904;DHT22;68291;49.602;8.722;2023-06-14T07:42:58;22.10;59.70
78904;DHT22;68291;49.602;8.722;2023-06-14T07:45:53;22.20;59.60
78904;DHT22;68291;49.602;8.722;2023-06-14T07:48:40;22.20;59.50
78904;DHT22;68291;49.602;8.722;2023-06-14T07:51:13;22.30;59.40
78904;DHT22;68291;49.602;8.722;2023-06-14T07:54:00;22.30;59.60
78904;DHT22;68291;49.602;8.722;2023-06-14T07:56:45;22.40;59.70
78904;DHT22;68291;49.602;8.722;2023-06-14T07:59:30;22.40;59.80
78904;DHT22;68291;49.602;8.722;2023-06-14T08:02:26;22.60;59.70
78904;DHT22;68291;49.602;8.722;2023-06-14T08:05:16;22.70;59.60
78904;DHT22;68291;49.602;8.722;2023-06-14T08:07:49;22.80;59.60
78904;DHT22;68291;49.602;8.722;2023-06-14T08:10:23;22.90;59.50
78904;DHT22;68291;49.602;8.722;2023-06-14T08:12:57;23.00;59.60
78904;DHT22;68291;49.602;8.722;2023-06-14T08:15:28;23.10;59.20
78904;DHT22;68291;49.602;8.722;2023-06-14T08:18:07;23.10;59.40
78904;DHT22;68291;49.602;8.722;2023-06-14T08:20:53;23.20;59.40
78904;DHT22;68291;49.602;8.722;2023-06-14T08:23:41;23.30;59.30
78904;DHT22;68291;49.602;8.722;2023-06-14T08:26:22;23.40;59.20
78904;DHT22;68291;49.602;8.722;2023-06-14T08:28:59;23.50;58.60
78904;DHT22;68291;49.602;8.722;2023-06-14T08:31:49;23.60;58.50
78904;DHT22;68291;49.602;8.722;2023-06-14T08:34:29;23.60;58.60
78904;DHT22;68291;49.602;8.722;2023-06-14T08:37:05;23.70;58.30
78904;DHT22;68291;49.602;8.722;2023-06-14T08:39:51;23.80;58.40
78904;DHT22;68291;49.602;8.722;2023-06-14T08:42:37;23.80;58.50
78904;DHT22;68291;49.602;8.722;2023-06-14T08:45:21;23.90;57.70
78904;DHT22;68291;49.602;8.722;2023-06-14T08:48:00;23.90;57.10
78904;DHT22;68291;49.602;8.722;2023-06-14T08:50:49;24.00;56.80
78904;DHT22;68291;49.602;8.722;2023-06-14T08:53:36;24.00;57.20
78904;DHT22;68291;49.602;8.722;2023-06-14T08:56:32;24.10;56.80
78904;DHT22;68291;49.602;8.722;2023-06-14T08:59:11;24.10;57.20
78904;DHT22;68291;49.602;8.722;2023-06-14T09:02:02;24.10;56.70
78904;DHT22;68291;49.602;8.722;2023-06-14T09:04:58;24.20;56.80
78904;DHT22;68291;49.602;8.722;2023-06-14T09:07:48;24.30;56.80
78904;DHT22;68291;49.602;8.722;2023-06-14T09:10:37;24.40;56.50
78904;DHT22;68291;49.602;8.722;2023-06-14T09:13:15;24.50;55.90
78904;DHT22;68291;49.602;8.722;2023-06-14T09:16:11;24.60;56.40
78904;DHT22;68291;49.602;8.722;2023-06-14T09:18:59;24.70;55.40
78904;DHT22;68291;49.602;8.722;2023-06-14T09:21:35;24.80;55.50
78904;DHT22;68291;49.602;8.722;2023-06-14T09:24:36;24.80;55.10
78904;DHT22;68291;49.602;8.722;2023-06-14T09:27:16;24.90;55.30
78904;DHT22;68291;49.602;8.722;2023-06-14T09:30:03;24.90;54.60
78904;DHT22;68291;49.602;8.722;2023-06-14T09:33:06;25.00;54.50
78904;DHT22;68291;49.602;8.722;2023-06-14T09:35:40;25.00;54.60
78904;DHT22;68291;49.602;8.722;2023-06-14T09:38:27;25.00;54.60
78904;DHT22;68291;49.602;8.722;2023-06-14T09:41:04;25.00;54.80
78904;DHT22;68291;49.602;8.722;2023-06-14T09:43:56;25.10;54.40
78904;DHT22;68291;49.602;8.722;2023-06-14T09:46:30;25.20;54.30
78904;DHT22;68291;49.602;8.722;2023-06-14T09:49:06;25.20;54.20
78904;DHT22;68291;49.602;8.722;2023-06-14T09:51:51;25.20;54.00
78904;DHT22;68291;49.602;8.722;2023-06-14T09:54:29;25.30;54.30
78904;DHT22;68291;49.602;8.722;2023-06-14T09:57:30;25.30;53.60
78904;DHT22;68291;49.602;8.722;2023-06-14T10:00:14;25.40;52.50
78904;DHT22;68291;49.602;8.722;2023-06-14T10:03:00;25.50;53.20
78904;DHT22;68291;49.602;8.722;2023-06-14T10:05:50;25.40;52.70
78904;DHT22;68291;49.602;8.722;2023-06-14T10:08:28;25.40;51.90
78904;DHT22;68291;49.602;8.722;2023-06-14T10:11:18;25.30;51.80
78904;DHT22;68291;49.602;8.722;2023-06-14T10:17:30;25.40;53.30
78904;DHT22;68291;49.602;8.722;2023-06-14T10:20:21;25.50;53.50
78904;DHT22;68291;49.602;8.722;2023-06-14T10:23:03;25.70;53.30
78904;DHT22;68291;49.602;8.722;2023-06-14T10:25:57;25.80;53.20
78904;DHT22;68291;49.602;8.722;2023-06-14T10:28:59;26.00;53.10
78904;DHT22;68291;49.602;8.722;2023-06-14T10:31:47;26.10;53.10
78904;DHT22;68291;49.602;8.722;2023-06-14T10:34:30;26.20;52.70
78904;DHT22;68291;49.602;8.722;2023-06-14T10:37:27;26.30;52.70
78904;DHT22;68291;49.602;8.722;2023-06-14T10:39:59;26.40;52.40
78904;DHT22;68291;49.602;8.722;2023-06-14T10:42:51;26.50;52.50
78904;DHT22;68291;49.602;8.722;2023-06-14T10:46:14;26.50;52.60
78904;DHT22;68291;49.602;8.722;2023-06-14T10:48:57;26.60;53.00
78904;DHT22;68291;49.602;8.722;2023-06-14T10:51:41;26.70;52.20
78904;DHT22;68291;49.602;8.722;2023-06-14T10:54:30;26.80;52.40
78904;DHT22;68291;49.602;8.722;2023-06-14T10:57:13;26.90;52.50
78904;DHT22;68291;49.602;8.722;2023-06-14T11:00:03;27.10;52.30
78904;DHT22;68291;49.602;8.722;2023-06-14T11:03:31;27.20;51.30
78904;DHT22;68291;49.602;8.722;2023-06-14T11:06:48;27.30;51.20
78904;DHT22;68291;49.602;8.722;2023-06-14T11:10:04;27.30;51.10
78904;DHT22;68291;49.602;8.722;2023-06-14T11:13:00;27.30;50.30
78904;DHT22;68291;49.602;8.722;2023-06-14T11:15:45;27.30;51.30
78904;DHT22;68291;49.602;8.722;2023-06-14T11:18:23;27.30;51.20
78904;DHT22;68291;49.602;8.722;2023-06-14T11:20:59;27.30;51.20
78904;DHT22;68291;49.602;8.722;2023-06-14T11:23:49;27.30;51.10
78904;DHT22;68291;49.602;8.722;2023-06-14T11:26:47;27.20;50.60
78904;DHT22;68291;49.602;8.722;2023-06-14T11:29:20;27.10;51.00
78904;DHT22;68291;49.602;8.722;2023-06-14T11:32:01;27.00;50.40
78904;DHT22;68291;49.602;8.722;2023-06-14T11:34:32;26.90;51.20
78904;DHT22;68291;49.602;8.722;2023-06-14T11:37:12;26.90;51.60
78904;DHT22;68291;49.602;8.722;2023-06-14T11:39:45;26.90;51.60
78904;DHT22;68291;49.602;8.722;2023-06-14T11:42:27;27.10;51.30
78904;DHT22;68291;49.602;8.722;2023-06-14T11:44:59;27.30;50.70
78904;DHT22;68291;49.602;8.722;2023-06-14T11:47:49;27.40;49.80
78904;DHT22;68291;49.602;8.722;2023-06-14T11:50:29;27.40;49.40
78904;DHT22;68291;49.602;8.722;2023-06-14T11:53:10;27.40;49.70
78904;DHT22;68291;49.602;8.722;2023-06-14T11:55:53;27.50;49.00
78904;DHT22;68291;49.602;8.722;2023-06-14T11:58:31;27.50;48.50
78904;DHT22;68291;49.602;8.722;2023-06-14T12:01:16;27.50;49.70
78904;DHT22;68291;49.602;8.722;2023-06-14T12:03:55;27.60;49.60
78904;DHT22;68291;49.602;8.722;2023-06-14T12:06:52;27.70;49.60
78904;DHT22;68291;49.602;8.722;2023-06-14T12:09:28;27.90;50.10
78904;DHT22;68291;49.602;8.722;2023-06-14T12:12:26;28.20;49.20
78904;DHT22;68291;49.602;8.722;2023-06-14T12:15:14;28.50;49.50
78904;DHT22;68291;49.602;8.722;2023-06-14T12:17:54;28.80;49.20
78904;DHT22;68291;49.602;8.722;2023-06-14T12:20:52;29.10;48.80
78904;DHT22;68291;49.602;8.722;2023-06-14T12:23:24;29.40;47.50
78904;DHT22;68291;49.602;8.722;2023-06-14T12:26:13;29.50;48.20
78904;DHT22;68291;49.602;8.722;2023-06-14T12:28:59;29.60;47.60
78904;DHT22;68291;49.602;8.722;2023-06-14T12:31:46;29.80;47.70
78904;DHT22;68291;49.602;8.722;2023-06-14T12:34:32;29.90;46.90
78904;DHT22;68291;49.602;8.722;2023-06-14T12:37:05;29.90;46.70
78904;DHT22;68291;49.602;8.722;2023-06-14T12:39:37;29.80;46.10
78904;DHT22;68291;49.602;8.722;2023-06-14T12:42:22;29.60;46.40
78904;DHT22;68291;49.602;8.722;2023-06-14T12:45:12;29.50;46.70
78904;DHT22;68291;49.602;8.722;2023-06-14T12:48:01;29.40;46.80
78904;DHT22;68291;49.602;8.722;2023-06-14T12:50:42;29.30;46.80
78904;DHT22;68291;49.602;8.722;2023-06-14T12:53:31;29.30;47.30
78904;DHT22;68291;49.602;8.722;2023-06-14T12:56:28;29.50;47.30
78904;DHT22;68291;49.602;8.722;2023-06-14T12:59:23;29.90;48.00
78904;DHT22;68291;49.602;8.722;2023-06-14T13:02:20;30.30;47.70
78904;DHT22;68291;49.602;8.722;2023-06-14T13:05:08;30.90;47.20
78904;DHT22;68291;49.602;8.722;2023-06-14T13:07:51;31.40;47.00
78904;DHT22;68291;49.602;8.722;2023-06-14T13:10:26;31.80;46.50
78904;DHT22;68291;49.602;8.722;2023-06-14T13:13:07;32.20;46.30
78904;DHT22;68291;49.602;8.722;2023-06-14T13:15:40;32.60;45.80
78904;DHT22;68291;49.602;8.722;2023-06-14T13:18:31;33.00;45.20
78904;DHT22;68291;49.602;8.722;2023-06-14T13:21:09;33.40;44.40
78904;DHT22;68291;49.602;8.722;2023-06-14T13:23:49;33.60;43.90
78904;DHT22;68291;49.602;8.722;2023-06-14T13:26:24;33.50;43.40
78904;DHT22;68291;49.602;8.722;2023-06-14T13:28:57;33.40;43.00
78904;DHT22;68291;49.602;8.722;2023-06-14T13:31:42;33.20;42.50
78904;DHT22;68291;49.602;8.722;2023-06-14T13:34:46;32.80;42.40
78904;DHT22;68291;49.602;8.722;2023-06-14T13:37:24;32.40;42.40
78904;DHT22;68291;49.602;8.722;2023-06-14T13:40:09;32.00;42.30
78904;DHT22;68291;49.602;8.722;2023-06-14T13:42:57;31.70;42.80
78904;DHT22;68291;49.602;8.722;2023-06-14T13:45:42;31.80;44.10
78904;DHT22;68291;49.602;8.722;2023-06-14T13:48:31;32.00;44.20
78904;DHT22;68291;49.602;8.722;2023-06-14T13:51:28;32.40;43.70
78904;DHT22;68291;49.602;8.722;2023-06-14T13:54:05;32.50;42.40
78904;DHT22;68291;49.602;8.722;2023-06-14T13:56:50;32.60;43.10
78904;DHT22;68291;49.602;8.722;2023-06-14T13:59:29;32.60;43.30
78904;DHT22;68291;49.602;8.722;2023-06-14T14:02:10;32.70;43.30
78904;DHT22;68291;49.602;8.722;2023-06-14T14:04:43;32.90;42.60
78904;DHT22;68291;49.602;8.722;2023-06-14T14:07:37;32.90;42.00
78904;DHT22;68291;49.602;8.722;2023-06-14T14:10:24;32.80;41.30
78904;DHT22;68291;49.602;8.722;2023-06-14T14:13:06;32.60;41.90
78904;DHT22;68291;49.602;8.722;2023-06-14T14:15:57;32.60;42.30
78904;DHT22;68291;49.602;8.722;2023-06-14T14:18:45;32.90;42.30
78904;DHT22;68291;49.602;8.722;2023-06-14T14:21:33;33.30;42.20
78904;DHT22;68291;49.602;8.722;2023-06-14T14:24:34;33.80;41.70
78904;DHT22;68291;49.602;8.722;2023-06-14T14:27:10;34.30;39.10
78904;DHT22;68291;49.602;8.722;2023-06-14T14:29:45;34.70;41.00
78904;DHT22;68291;49.602;8.722;2023-06-14T14:32:21;35.00;40.40
78904;DHT22;68291;49.602;8.722;2023-06-14T14:35:07;35.50;41.10
78904;DHT22;68291;49.602;8.722;2023-06-14T14:37:55;36.00;40.10
78904;DHT22;68291;49.602;8.722;2023-06-14T14:41:02;36.50;39.30
78904;DHT22;68291;49.602;8.722;2023-06-14T14:43:41;36.90;38.30
78904;DHT22;68291;49.602;8.722;2023-06-14T14:46:18;36.80;38.20
78904;DHT22;68291;49.602;8.722;2023-06-14T14:49:00;36.60;37.30
78904;DHT22;68291;49.602;8.722;2023-06-14T14:51:52;36.50;38.00
78904;DHT22;68291;49.602;8.722;2023-06-14T14:54:53;36.60;38.40
78904;DHT22;68291;49.602;8.722;2023-06-14T14:57:45;36.90;38.20
78904;DHT22;68291;49.602;8.722;2023-06-14T15:00:20;37.10;37.70
78904;DHT22;68291;49.602;8.722;2023-06-14T15:03:07;37.30;37.80
78904;DHT22;68291;49.602;8.722;2023-06-14T15:05:53;37.30;37.10
78904;DHT22;68291;49.602;8.722;2023-06-14T15:08:25;37.20;36.90
78904;DHT22;68291;49.602;8.722;2023-06-14T15:11:12;37.20;37.00
78904;DHT22;68291;49.602;8.722;2023-06-14T15:14:15;37.30;37.40
78904;DHT22;68291;49.602;8.722;2023-06-14T15:16:51;37.60;36.90
78904;DHT22;68291;49.602;8.722;2023-06-14T15:19:35;37.90;36.20
78904;DHT22;68291;49.602;8.722;2023-06-14T15:22:16;38.00;36.30
78904;DHT22;68291;49.602;8.722;2023-06-14T15:25:01;38.10;35.60
78904;DHT22;68291;49.602;8.722;2023-06-14T15:27:56;38.00;35.60
78904;DHT22;68291;49.602;8.722;2023-06-14T15:30:44;37.70;35.10
78904;DHT22;68291;49.602;8.722;2023-06-14T15:33:30;37.30;35.00
78904;DHT22;68291;49.602;8.722;2023-06-14T15:36:11;36.90;35.60
78904;DHT22;68291;49.602;8.722;2023-06-14T15:38:46;36.60;35.70
78904;DHT22;68291;49.602;8.722;2023-06-14T15:41:37;36.50;36.00
78904;DHT22;68291;49.602;8.722;2023-06-14T15:44:25;36.60;36.50
78904;DHT22;68291;49.602;8.722;2023-06-14T15:47:28;37.00;36.60
78904;DHT22;68291;49.602;8.722;2023-06-14T15:50:06;37.50;36.10
78904;DHT22;68291;49.602;8.722;2023-06-14T15:53:01;37.80;35.70
78904;DHT22;68291;49.602;8.722;2023-06-14T15:55:53;38.10;35.80
78904;DHT22;68291;49.602;8.722;2023-06-14T15:58:28;38.50;35.70
78904;DHT22;68291;49.602;8.722;2023-06-14T16:01:15;38.90;35.10
78904;DHT22;68291;49.602;8.722;2023-06-14T16:03:50;39.20;34.40
78904;DHT22;68291;49.602;8.722;2023-06-14T16:06:35;39.50;33.80
78904;DHT22;68291;49.602;8.722;2023-06-14T16:09:23;39.80;33.80
78904;DHT22;68291;49.602;8.722;2023-06-14T16:12:18;40.00;33.60
78904;DHT22;68291;49.602;8.722;2023-06-14T16:15:10;40.30;33.10
78904;DHT22;68291;49.602;8.722;2023-06-14T16:17:50;40.60;33.30
78904;DHT22;68291;49.602;8.722;2023-06-14T16:20:43;40.80;32.90
78904;DHT22;68291;49.602;8.722;2023-06-14T16:23:26;41.00;32.50
78904;DHT22;68291;49.602;8.722;2023-06-14T16:26:12;41.00;32.60
78904;DHT22;68291;49.602;8.722;2023-06-14T16:29:07;41.00;32.50
78904;DHT22;68291;49.602;8.722;2023-06-14T16:31:42;41.10;32.50
78904;DHT22;68291;49.602;8.722;2023-06-14T16:34:28;41.10;31.70
78904;DHT22;68291;49.602;8.722;2023-06-14T16:37:44;41.20;31.40
78904;DHT22;68291;49.602;8.722;2023-06-14T16:40:38;41.20;31.20
78904;DHT22;68291;49.602;8.722;2023-06-14T16:43:22;41.30;31.50
78904;DHT22;68291;49.602;8.722;2023-06-14T16:46:03;41.20;30.80
78904;DHT22;68291;49.602;8.722;2023-06-14T16:48:46;40.90;30.80
78904;DHT22;68291;49.602;8.722;2023-06-14T16:51:45;40.60;30.90
78904;DHT22;68291;49.602;8.722;2023-06-14T16:57:48;40.30;31.20
78904;DHT22;68291;49.602;8.722;2023-06-14T17:00:20;40.30;31.70
78904;DHT22;68291;49.602;8.722;2023-06-14T17:03:17;40.40;31.00
78904;DHT22;68291;49.602;8.722;2023-06-14T17:06:09;40.40;30.90
78904;DHT22;68291;49.602;8.722;2023-06-14T17:08:48;40.50;30.90
78904;DHT22;68291;49.602;8.722;2023-06-14T17:11:41;40.50;30.40
78904;DHT22;68291;49.602;8.722;2023-06-14T17:14:27;40.50;30.10
78904;DHT22;68291;49.602;8.722;2023-06-14T17:17:06;40.30;30.60
78904;DHT22;68291;49.602;8.722;2023-06-14T17:19:50;40.20;30.60
78904;DHT22;68291;49.602;8.722;2023-06-14T17:22:31;40.10;30.50
78904;DHT22;68291;49.602;8.722;2023-06-14T17:25:04;40.10;30.70
78904;DHT22;68291;49.602;8.722;2023-06-14T17:27:59;40.00;30.60
78904;DHT22;68291;49.602;8.722;2023-06-14T17:30:33;40.00;31.30
78904;DHT22;68291;49.602;8.722;2023-06-14T17:33:19;40.00;31.10
78904;DHT22;68291;49.602;8.722;2023-06-14T17:36:05;40.00;30.90
78904;DHT22;68291;49.602;8.722;2023-06-14T17:38:40;39.90;31.70
78904;DHT22;68291;49.602;8.722;2023-06-14T17:41:17;39.80;30.50